Time;durP1;ratioP1;P1;durP2;ratioP2;P2;SDS_P1;SDS_P2;PMS_P1;PMS_P2;Temp;Humidity;BMP_temperature;BMP_pressure;BME280_temperature;BME280_humidity;BME280_pressure;Samples;Min_cycle;Max_cycle;Signal;HPM_P1;HPM_P2
2021/12/19 00:00:56;;;;;;;25.02;7.43;;;6.80;99.90;;;;;;4987871;28;20054;-72
2021/12/19 00:08:50;;;;;;;34.38;9.60;;;6.70;99.90;;;;;;5018450;28;20082;-71
2021/12/19 00:11:21;;;;;;;32.58;9.80;;;6.70;99.90;;;;;;4986032;28;20059;-72
2021/12/19 00:13:50;;;;;;;32.70;9.68;;;6.70;99.90;;;;;;4979841;28;20054;-71
2021/12/19 00:16:18;;;;;;;32.28;9.23;;;6.70;99.90;;;;;;4968085;28;20047;-71
2021/12/19 00:18:48;;;;;;;28.88;9.57;;;6.70;99.90;;;;;;4966165;28;20051;-71
2021/12/19 00:21:20;;;;;;;30.35;9.65;;;6.60;99.90;;;;;;5006883;28;20077;-70
2021/12/19 00:23:50;;;;;;;33.78;10.30;;;6.60;99.90;;;;;;4986721;28;20069;-71
2021/12/19 00:26:18;;;;;;;38.83;10.57;;;6.60;99.90;;;;;;4986346;28;20796;-71
2021/12/19 00:28:48;;;;;;;32.55;10.55;;;6.60;99.90;;;;;;4985599;28;20061;-71
2021/12/19 00:31:16;;;;;;;36.55;10.50;;;6.60;99.90;;;;;;5017828;28;20050;-71
2021/12/19 00:33:43;;;;;;;40.15;11.82;;;6.60;99.90;;;;;;4969249;28;20598;-71
2021/12/19 00:36:12;;;;;;;44.67;11.35;;;6.60;99.90;;;;;;4985380;28;20076;-71
2021/12/19 00:38:39;;;;;;;;;;;6.60;99.90;;;;;;4985178;28;20653;-71
2021/12/19 00:41:08;;;;;;;45.55;11.20;;;6.60;99.90;;;;;;4986379;28;20001;-72
2021/12/19 00:43:53;;;;;;;74.93;11.50;;;6.60;99.90;;;;;;4984876;28;20054;-72
2021/12/19 00:46:24;;;;;;;74.60;12.27;;;6.50;99.90;;;;;;4986579;28;20050;-72
2021/12/19 00:48:54;;;;;;;87.60;11.43;;;6.50;99.90;;;;;;4984952;28;20055;-72
2021/12/19 00:51:24;;;;;;;95.38;11.95;;;6.50;99.90;;;;;;4985824;28;20058;-73
2021/12/19 00:53:54;;;;;;;105.18;14.23;;;6.40;99.90;;;;;;4986482;28;20054;-72
2021/12/19 00:56:22;;;;;;;170.55;14.20;;;6.50;99.90;;;;;;4986379;28;20073;-72
2021/12/19 00:58:50;;;;;;;155.07;14.90;;;6.40;99.90;;;;;;4984949;28;20054;-71
2021/12/19 01:01:18;;;;;;;174.45;13.93;;;6.40;99.90;;;;;;4985673;28;20058;-71
2021/12/19 01:03:47;;;;;;;90.57;12.40;;;6.40;99.90;;;;;;4985102;28;20046;-71
2021/12/19 01:06:18;;;;;;;82.25;11.02;;;6.40;99.90;;;;;;4983838;28;20058;-71
2021/12/19 01:08:47;;;;;;;45.97;11.02;;;6.30;99.90;;;;;;5017192;28;20042;-71
2021/12/19 01:11:15;;;;;;;60.20;10.68;;;6.30;99.90;;;;;;4985341;28;20050;-71
2021/12/19 01:13:43;;;;;;;94.30;10.82;;;6.30;99.90;;;;;;4985462;28;20050;-71
2021/12/19 01:16:11;;;;;;;126.07;12.73;;;6.30;99.90;;;;;;4984334;28;20058;-71
2021/12/19 01:18:39;;;;;;;138.80;14.27;;;6.20;99.90;;;;;;5000741;28;20066;-71
2021/12/19 01:21:07;;;;;;;330.13;16.65;;;6.20;99.90;;;;;;4984689;28;20485;-72
2021/12/19 01:23:34;;;;;;;321.50;16.98;;;6.20;99.90;;;;;;5018937;28;20054;-71
2021/12/19 01:26:02;;;;;;;128.73;14.48;;;6.20;99.90;;;;;;4989584;28;20062;-71
2021/12/19 01:28:29;;;;;;;214.98;15.52;;;6.20;99.90;;;;;;4972441;28;20743;-72
2021/12/19 01:30:57;;;;;;;135.32;14.68;;;6.20;99.90;;;;;;4971960;28;20530;-71
2021/12/19 01:33:25;;;;;;;188.20;15.73;;;6.30;99.90;;;;;;4989860;28;20486;-71
2021/12/19 01:35:53;;;;;;;220.38;14.93;;;6.20;99.90;;;;;;5021029;28;20057;-72
2021/12/19 01:38:21;;;;;;;80.43;13.68;;;6.20;99.90;;;;;;4988494;28;20046;-72
2021/12/19 01:40:49;;;;;;;142.60;14.45;;;6.20;99.90;;;;;;4989619;28;20379;-71
2021/12/19 01:43:20;;;;;;;139.25;14.30;;;6.20;99.90;;;;;;5004042;28;20054;-71
2021/12/19 01:45:48;;;;;;;116.18;15.57;;;6.20;99.90;;;;;;4988328;28;20058;-71
2021/12/19 01:48:16;;;;;;;269.52;17.60;;;6.20;99.90;;;;;;4989602;28;20047;-71
2021/12/19 01:50:44;;;;;;;179.38;16.30;;;6.20;99.90;;;;;;4979213;28;20490;-71
2021/12/19 01:53:12;;;;;;;240.95;18.15;;;6.20;99.90;;;;;;4989203;28;20493;-71
2021/12/19 01:55:41;;;;;;;120.95;15.30;;;6.30;99.90;;;;;;4989008;28;20054;-71
2021/12/19 01:58:10;;;;;;;201.55;14.40;;;6.20;99.90;;;;;;4989282;28;20046;-72
2021/12/19 02:00:41;;;;;;;144.38;14.18;;;6.20;99.90;;;;;;4988826;28;20058;-72
2021/12/19 02:03:11;;;;;;;96.47;12.80;;;6.20;99.90;;;;;;4987754;28;20081;-71
2021/12/19 02:05:40;;;;;;;58.33;12.88;;;6.20;99.90;;;;;;4988995;28;20177;-71
2021/12/19 02:08:08;;;;;;;125.65;12.18;;;6.20;99.90;;;;;;4989000;28;20069;-72
2021/12/19 02:10:37;;;;;;;147.20;12.32;;;6.10;99.90;;;;;;5003526;28;20058;-71
2021/12/19 02:13:06;;;;;;;135.77;13.18;;;6.10;99.90;;;;;;4988953;28;20061;-71
2021/12/19 02:15:35;;;;;;;184.73;15.13;;;6.10;99.90;;;;;;5014705;28;20042;-71
2021/12/19 02:18:07;;;;;;;301.90;16.10;;;6.10;99.90;;;;;;4987478;28;20061;-71
2021/12/19 02:20:39;;;;;;;240.68;16.38;;;6.10;99.90;;;;;;4987110;28;20058;-72
2021/12/19 02:23:09;;;;;;;313.70;16.85;;;6.10;99.90;;;;;;5018186;28;20492;-71
2021/12/19 02:25:37;;;;;;;223.88;16.80;;;6.10;99.90;;;;;;4986720;28;20387;-71
2021/12/19 02:28:05;;;;;;;300.13;19.40;;;6.10;99.90;;;;;;4986952;28;20058;-71
2021/12/19 02:30:33;;;;;;;270.92;18.10;;;6.10;99.90;;;;;;5017771;28;20050;-72
2021/12/19 02:33:01;;;;;;;153.35;17.02;;;6.10;99.90;;;;;;4970695;28;20058;-71
2021/12/19 02:35:33;;;;;;;;;;;6.10;99.90;;;;;;5003615;28;20069;-71
2021/12/19 02:48:09;;;;;;;126.22;16.35;;;6.10;99.90;;;;;;5003539;28;20422;-71
2021/12/19 02:48:56;;;;;;;304.33;17.23;;;6.10;99.90;;;;;;4988621;28;20061;-71
2021/12/19 02:51:24;;;;;;;296.63;17.88;;;6.10;99.90;;;;;;4987127;28;20054;-72
2021/12/19 02:53:52;;;;;;;;;;;6.10;99.90;;;;;;5020657;28;20065;-71
2021/12/19 02:56:20;;;;;;;242.80;16.00;;;6.10;99.90;;;;;;5003277;28;19922;-71
2021/12/19 02:58:48;;;;;;;149.70;17.23;;;6.00;99.90;;;;;;4986701;28;20042;-71
2021/12/19 03:01:18;;;;;;;189.60;16.88;;;6.00;99.90;;;;;;4988470;28;20054;-71
2021/12/19 03:03:45;;;;;;;260.25;17.27;;;6.00;99.90;;;;;;4988581;28;20069;-71
2021/12/19 03:06:14;;;;;;;287.35;17.35;;;6.00;99.90;;;;;;5020001;28;20050;-72
2021/12/19 03:08:45;;;;;;;265.80;16.80;;;6.00;99.90;;;;;;5003753;28;20467;-71
2021/12/19 03:11:57;;;;;;;234.93;16.08;;;6.00;99.90;;;;;;5019491;28;20399;-71
2021/12/19 03:19:45;;;;;;;187.85;17.48;;;5.90;99.90;;;;;;4987012;28;20038;-72
2021/12/19 03:22:13;;;;;;;;;;;6.10;99.90;;;;;;4987992;28;20069;-71
2021/12/19 03:24:40;;;;;;;129.93;16.38;;;6.00;99.90;;;;;;4988138;28;19922;-72
2021/12/19 03:27:08;;;;;;;138.60;15.35;;;5.90;99.90;;;;;;4970701;28;20057;-72
2021/12/19 03:29:36;;;;;;;133.75;19.67;;;6.00;99.90;;;;;;4987755;28;20054;-71
2021/12/19 03:32:04;;;;;;;110.38;15.48;;;6.00;99.90;;;;;;4987925;28;20518;-72
2021/12/19 03:34:34;;;;;;;144.20;15.20;;;5.90;99.90;;;;;;4987793;28;20053;-71
2021/12/19 03:37:02;;;;;;;101.15;13.63;;;5.90;99.90;;;;;;4987537;28;20047;-72
2021/12/19 03:39:38;;;;;;;150.82;14.27;;;6.00;99.90;;;;;;4987619;28;20053;-71
2021/12/19 03:42:06;;;;;;;114.55;13.40;;;6.00;99.90;;;;;;4970381;28;20062;-71
2021/12/19 03:44:33;;;;;;;111.00;12.05;;;5.90;99.90;;;;;;4988328;28;20055;-72
2021/12/19 03:47:01;;;;;;;109.18;12.98;;;5.90;99.90;;;;;;4986839;28;20054;-71
2021/12/19 03:49:29;;;;;;;66.45;12.43;;;5.90;99.90;;;;;;5019130;28;20530;-71
2021/12/19 03:51:57;;;;;;;112.13;12.50;;;5.90;99.90;;;;;;4987461;28;20525;-71
2021/12/19 03:54:25;;;;;;;62.92;11.13;;;5.90;99.90;;;;;;5002348;28;20053;-71
2021/12/19 03:56:53;;;;;;;68.80;9.55;;;5.90;99.90;;;;;;4987755;28;20080;-71
2021/12/19 03:59:20;;;;;;;159.23;10.75;;;5.90;99.90;;;;;;5002715;28;20515;-72
2021/12/19 04:01:51;;;;;;;98.00;11.27;;;5.90;99.90;;;;;;4987556;28;20074;-71
2021/12/19 04:04:20;;;;;;;126.70;8.90;;;5.90;99.90;;;;;;4975258;28;20608;-71
2021/12/19 04:06:48;;;;;;;66.60;9.88;;;5.90;99.90;;;;;;4982923;28;20479;-71
2021/12/19 04:09:15;;;;;;;99.22;10.50;;;5.90;99.90;;;;;;4968010;28;20042;-71
2021/12/19 04:11:43;;;;;;;80.40;11.32;;;5.90;99.90;;;;;;4967854;28;20062;-73
2021/12/19 04:14:11;;;;;;;85.72;10.88;;;5.90;99.90;;;;;;4967865;28;20409;-72
2021/12/19 04:16:42;;;;;;;97.53;11.48;;;6.00;99.90;;;;;;4982853;28;20055;-72
2021/12/19 04:19:10;;;;;;;133.07;11.13;;;6.00;99.90;;;;;;4966610;28;20051;-72
2021/12/19 04:21:38;;;;;;;79.57;10.77;;;6.00;99.90;;;;;;4992747;28;20057;-71
2021/12/19 04:24:06;;;;;;;;;;;6.00;99.90;;;;;;4987809;28;20046;-71
2021/12/19 04:26:34;;;;;;;118.22;9.88;;;6.00;99.90;;;;;;4986918;28;20390;-71
2021/12/19 04:29:02;;;;;;;85.50;9.13;;;5.90;99.90;;;;;;5001533;28;20065;-71
2021/12/19 04:31:30;;;;;;;78.13;9.45;;;6.00;99.90;;;;;;4985368;28;20049;-71
2021/12/19 04:33:58;;;;;;;108.50;8.68;;;6.00;99.90;;;;;;4987267;28;20479;-71
2021/12/19 04:36:32;;;;;;;80.15;8.52;;;6.00;99.90;;;;;;4986212;28;20057;-71
2021/12/19 05:04:08;;;;;;;235.50;8.77;;;5.80;99.90;;;;;;4985268;28;20042;-71
2021/12/19 05:14:14;;;;;;;165.80;10.05;;;5.80;99.90;;;;;;4989269;28;20050;-72
2021/12/19 05:16:44;;;;;;;183.43;11.20;;;5.70;99.90;;;;;;4990019;28;20057;-72
2021/12/19 05:19:27;;;;;;;247.45;11.80;;;5.80;99.90;;;;;;4989228;28;20054;-72
2021/12/19 05:21:59;;;;;;;266.27;12.60;;;5.70;99.90;;;;;;4989939;28;20072;-72
2021/12/19 05:27:05;;;;;;;336.08;14.80;;;5.80;99.90;;;;;;4989473;28;20430;-71
2021/12/19 05:29:34;;;;;;;249.80;13.23;;;5.80;99.90;;;;;;4990280;28;20042;-71
2021/12/19 05:32:04;;;;;;;223.25;13.00;;;5.80;99.90;;;;;;4989955;28;20063;-72
2021/12/19 05:34:33;;;;;;;196.38;14.98;;;5.80;99.90;;;;;;4990238;28;20050;-71
2021/12/19 05:45:20;;;;;;;269.75;17.08;;;5.90;99.90;;;;;;4984337;28;20542;-71
2021/12/19 05:47:51;;;;;;;231.50;14.73;;;5.90;99.90;;;;;;4987805;28;20384;-71
2021/12/19 05:50:22;;;;;;;287.08;15.00;;;5.90;99.90;;;;;;4988750;28;20486;-71
2021/12/19 05:52:51;;;;;;;358.33;16.70;;;5.90;99.90;;;;;;4989147;28;20054;-71
2021/12/19 05:55:20;;;;;;;199.65;14.48;;;5.90;99.90;;;;;;4988970;28;20047;-72
2021/12/19 05:57:48;;;;;;;251.05;14.60;;;5.90;99.90;;;;;;4987822;28;20049;-72
2021/12/19 06:00:17;;;;;;;223.52;14.57;;;5.80;99.90;;;;;;4989310;28;20046;-72
2021/12/19 06:02:45;;;;;;;161.52;14.55;;;5.90;99.90;;;;;;4988246;28;20267;-72
2021/12/19 06:05:14;;;;;;;244.73;15.27;;;5.90;99.90;;;;;;4989146;28;20415;-72
2021/12/19 06:07:42;;;;;;;182.38;12.93;;;5.80;99.90;;;;;;4989047;28;20049;-72
2021/12/19 06:10:11;;;;;;;273.42;14.98;;;5.90;99.90;;;;;;4986538;28;20088;-72
2021/12/19 06:12:39;;;;;;;;;;;5.90;99.90;;;;;;4989215;28;20050;-71
2021/12/19 06:15:08;;;;;;;364.75;16.52;;;5.90;99.90;;;;;;4988737;28;19948;-71
2021/12/19 06:17:38;;;;;;;281.42;13.85;;;5.90;99.90;;;;;;4987373;28;20069;-72
2021/12/19 06:20:08;;;;;;;217.40;14.63;;;5.90;99.90;;;;;;4988942;28;20105;-72
2021/12/19 06:22:36;;;;;;;247.15;14.63;;;5.90;99.90;;;;;;4988487;28;20047;-71
2021/12/19 06:25:05;;;;;;;306.17;16.08;;;5.90;99.90;;;;;;4988826;28;20046;-71
2021/12/19 06:27:32;;;;;;;168.75;13.75;;;5.90;99.90;;;;;;4988742;28;20050;-72
2021/12/19 06:30:00;;;;;;;254.38;15.32;;;5.90;99.90;;;;;;4988643;28;20046;-72
2021/12/19 06:32:28;;;;;;;306.10;14.73;;;6.00;99.90;;;;;;4988471;28;20693;-72
2021/12/19 06:34:58;;;;;;;314.27;14.55;;;6.00;99.90;;;;;;4988419;28;20503;-71
2021/12/19 06:37:26;;;;;;;221.48;13.77;;;6.00;99.90;;;;;;5003244;28;20043;-72
2021/12/19 06:39:54;;;;;;;229.20;12.85;;;6.00;99.90;;;;;;4988761;28;20050;-72
2021/12/19 06:42:22;;;;;;;326.80;12.48;;;6.00;99.90;;;;;;4988196;28;20434;-71
2021/12/19 06:44:50;;;;;;;249.52;11.65;;;5.90;99.90;;;;;;4987102;28;20590;-73
2021/12/19 06:47:17;;;;;;;288.92;10.80;;;6.00;99.90;;;;;;4988099;28;20415;-71
2021/12/19 06:49:45;;;;;;;193.32;9.10;;;5.90;99.90;;;;;;4988380;28;20050;-73
2021/12/19 06:52:13;;;;;;;302.63;10.18;;;5.90;99.90;;;;;;4986729;28;20050;-74
2021/12/19 06:54:41;;;;;;;254.95;9.98;;;5.80;99.90;;;;;;4970479;28;20054;-73
2021/12/19 06:57:08;;;;;;;222.15;9.45;;;5.80;99.90;;;;;;4988077;28;20062;-74
2021/12/19 06:59:36;;;;;;;216.43;10.45;;;5.80;99.90;;;;;;4988172;28;20057;-71
2021/12/19 07:02:04;;;;;;;191.95;8.43;;;5.80;99.90;;;;;;4985219;28;20057;-71
2021/12/19 07:04:31;;;;;;;189.15;9.20;;;5.70;99.90;;;;;;5002903;28;20069;-72
2021/12/19 07:06:59;;;;;;;206.38;8.27;;;5.70;99.90;;;;;;4988082;28;20042;-74
2021/12/19 07:09:27;;;;;;;113.78;8.75;;;5.70;99.90;;;;;;5002380;28;20645;-71
2021/12/19 07:11:56;;;;;;;128.65;7.60;;;5.70;99.90;;;;;;4983631;28;20050;-72
2021/12/19 07:14:24;;;;;;;76.40;6.68;;;5.70;99.90;;;;;;4983681;28;20042;-72
2021/12/19 07:16:51;;;;;;;109.78;6.30;;;5.60;99.90;;;;;;4985974;28;20499;-72
2021/12/19 07:19:19;;;;;;;143.35;6.30;;;5.60;99.90;;;;;;4984511;28;20054;-71
2021/12/19 07:21:47;;;;;;;105.63;6.22;;;5.60;99.90;;;;;;4986740;28;20046;-72
2021/12/19 07:24:14;;;;;;;88.32;5.72;;;5.50;99.90;;;;;;4984752;28;20050;-72
2021/12/19 07:26:42;;;;;;;82.05;5.57;;;5.40;99.90;;;;;;5001009;28;20050;-72
2021/12/19 07:29:10;;;;;;;111.65;5.95;;;5.40;99.90;;;;;;5017823;28;20046;-72
2021/12/19 07:31:38;;;;;;;124.20;5.70;;;5.40;99.90;;;;;;4985934;28;20059;-72
2021/12/19 07:34:06;;;;;;;;;;;5.30;99.90;;;;;;4986277;28;20788;-72
2021/12/19 07:36:40;;;;;;;60.00;5.55;;;5.30;99.90;;;;;;4984285;28;20290;-71
2021/12/19 07:39:24;;;;;;;74.65;5.65;;;5.30;99.90;;;;;;4985533;28;20054;-72
2021/12/19 07:41:52;;;;;;;111.53;6.43;;;5.30;99.90;;;;;;4985669;28;20418;-71
2021/12/19 07:44:20;;;;;;;170.07;6.82;;;5.20;99.90;;;;;;4986911;28;20054;-72
2021/12/19 07:46:49;;;;;;;95.20;6.57;;;5.20;99.90;;;;;;5017025;28;20043;-71
2021/12/19 07:49:17;;;;;;;162.23;7.60;;;5.20;99.90;;;;;;4985254;28;20050;-71
2021/12/19 07:51:45;;;;;;;88.68;6.30;;;5.20;99.90;;;;;;4985284;28;20258;-72
2021/12/19 07:54:12;;;;;;;98.60;7.03;;;5.20;99.90;;;;;;4985499;28;20054;-72
2021/12/19 07:56:40;;;;;;;116.60;6.97;;;5.10;99.90;;;;;;4985658;28;20054;-72
2021/12/19 07:59:08;;;;;;;110.00;6.22;;;5.20;99.90;;;;;;4985257;28;20050;-72
2021/12/19 08:01:36;;;;;;;87.25;5.70;;;5.20;99.90;;;;;;5001081;28;20130;-71
2021/12/19 08:04:04;;;;;;;115.22;6.07;;;5.20;99.90;;;;;;4985651;28;20057;-72
2021/12/19 08:06:32;;;;;;;94.53;6.28;;;5.20;99.90;;;;;;4986636;28;20046;-72
2021/12/19 08:09:09;;;;;;;93.47;6.05;;;5.20;99.90;;;;;;4983489;28;20110;-72
2021/12/19 08:11:41;;;;;;;80.88;5.63;;;5.30;99.90;;;;;;4983766;28;20049;-72
2021/12/19 08:14:12;;;;;;;116.65;7.63;;;5.30;99.90;;;;;;5006598;28;20054;-72
2021/12/19 08:16:41;;;;;;;81.93;5.85;;;5.30;99.90;;;;;;4976277;28;20058;-71
2021/12/19 08:19:11;;;;;;;105.35;6.03;;;5.30;99.90;;;;;;4979830;28;20050;-72
2021/12/19 08:21:39;;;;;;;74.78;5.60;;;5.30;99.90;;;;;;4984166;28;20139;-72
2021/12/19 08:24:11;;;;;;;75.07;5.93;;;5.30;99.90;;;;;;4985473;28;20054;-72
2021/12/19 08:26:40;;;;;;;83.50;5.72;;;5.30;99.90;;;;;;4999816;28;20042;-71
2021/12/19 08:29:11;;;;;;;80.53;5.60;;;5.30;99.90;;;;;;4991235;28;20046;-73
2021/12/19 08:31:40;;;;;;;52.00;5.28;;;5.30;99.90;;;;;;4981701;28;20046;-72
2021/12/19 08:34:08;;;;;;;46.88;4.45;;;5.30;99.90;;;;;;4979936;28;20050;-72
2021/12/19 08:36:36;;;;;;;32.33;3.47;;;5.30;99.90;;;;;;5018257;28;20545;-72
2021/12/19 08:39:05;;;;;;;21.33;3.90;;;5.30;99.90;;;;;;4986787;28;20065;-72
2021/12/19 08:41:38;;;;;;;21.40;3.78;;;5.20;99.90;;;;;;4986153;28;20058;-72
2021/12/19 08:44:06;;;;;;;25.70;3.65;;;5.20;99.90;;;;;;4985961;28;20065;-72
2021/12/19 08:46:35;;;;;;;;;;;5.20;99.90;;;;;;4986592;28;20480;-72
2021/12/19 08:49:04;;;;;;;27.20;3.67;;;5.20;99.90;;;;;;4985257;28;20580;-72
2021/12/19 08:51:32;;;;;;;19.50;3.70;;;5.20;99.90;;;;;;4965386;28;20051;-72
2021/12/19 08:54:02;;;;;;;;;;;5.10;99.90;;;;;;4971771;28;20054;-72
2021/12/19 08:56:30;;;;;;;21.85;3.80;;;5.10;99.90;;;;;;4985110;28;19926;-72
2021/12/19 08:58:59;;;;;;;12.35;3.75;;;5.00;99.90;;;;;;4983925;28;20061;-72
2021/12/19 09:01:27;;;;;;;25.35;4.28;;;5.10;99.90;;;;;;4981444;28;20053;-72
2021/12/19 09:03:55;;;;;;;35.05;4.35;;;5.10;99.90;;;;;;4981465;28;20586;-72
2021/12/19 09:06:23;;;;;;;40.58;4.18;;;5.20;99.90;;;;;;4999788;28;20050;-72
2021/12/19 09:08:51;;;;;;;80.05;4.43;;;5.10;99.90;;;;;;4996609;28;20433;-72
2021/12/19 09:11:19;;;;;;;41.33;4.18;;;5.20;99.90;;;;;;4994721;28;20062;-73
2021/12/19 09:13:47;;;;;;;31.00;4.70;;;5.20;99.90;;;;;;4969442;28;20050;-73
2021/12/19 09:16:15;;;;;;;38.92;4.35;;;5.30;99.90;;;;;;4982659;28;20506;-73
2021/12/19 09:19:03;;;;;;;36.97;4.93;;;5.20;99.90;;;;;;4992261;28;20042;-73
2021/12/19 09:21:30;;;;;;;23.20;4.13;;;5.30;99.90;;;;;;4984526;28;20046;-73
2021/12/19 09:23:58;;;;;;;19.40;2.78;;;5.30;99.90;;;;;;4984629;28;20057;-73
2021/12/19 09:26:27;;;;;;;38.13;3.40;;;5.30;99.90;;;;;;4985192;28;20046;-73
2021/12/19 09:28:54;;;;;;;15.57;3.05;;;5.40;99.90;;;;;;4985327;28;20384;-73
2021/12/19 09:31:22;;;;;;;;;;;5.40;99.90;;;;;;4985141;28;20046;-73
2021/12/19 09:33:50;;;;;;;21.88;3.08;;;5.40;99.90;;;;;;4984455;28;19929;-73
2021/12/19 09:36:18;;;;;;;42.03;3.97;;;5.40;99.90;;;;;;5000048;28;20046;-72
2021/12/19 09:38:48;;;;;;;33.00;3.55;;;5.50;99.90;;;;;;4985260;28;20049;-73
2021/12/19 09:41:28;;;;;;;20.50;3.70;;;5.50;99.90;;;;;;5016707;28;20054;-73
2021/12/19 09:44:02;;;;;;;28.52;4.20;;;5.60;99.90;;;;;;4985726;28;20066;-73
2021/12/19 09:46:33;;;;;;;31.33;3.95;;;5.60;99.90;;;;;;4980797;28;20048;-78
2021/12/19 09:49:04;;;;;;;38.72;4.50;;;5.70;99.90;;;;;;4988144;28;20051;-77
2021/12/19 09:51:31;;;;;;;26.75;4.25;;;5.70;99.90;;;;;;4987242;28;20077;-78
2021/12/19 09:53:59;;;;;;;22.65;4.00;;;5.80;99.90;;;;;;4988501;28;20042;-77
2021/12/19 09:56:30;;;;;;;13.32;3.85;;;5.80;99.90;;;;;;4987805;28;20550;-75
2021/12/19 09:58:58;;;;;;;32.28;4.07;;;5.90;99.90;;;;;;4986759;28;20054;-76
2021/12/19 10:01:26;;;;;;;78.63;5.20;;;5.90;99.90;;;;;;5003654;28;20061;-82
2021/12/19 10:03:54;;;;;;;74.40;5.20;;;5.90;99.90;;;;;;4987849;28;20101;-72
2021/12/19 10:06:24;;;;;;;;;;;6.00;99.90;;;;;;4987403;28;20053;-76
2021/12/19 10:09:12;;;;;;;65.25;5.43;;;6.00;99.90;;;;;;4999504;28;19925;-75
2021/12/19 10:11:57;;;;;;;82.07;5.40;;;6.00;99.90;;;;;;4982646;28;20046;-72
2021/12/19 10:14:31;;;;;;;42.20;5.30;;;6.00;99.90;;;;;;4985543;28;20478;-71
2021/12/19 10:17:02;;;;;;;55.28;5.57;;;6.00;99.90;;;;;;4988637;28;20050;-74
2021/12/19 10:19:51;;;;;;;109.00;6.15;;;6.10;99.90;;;;;;4988924;28;20399;-73
2021/12/19 10:22:32;;;;;;;92.65;5.57;;;6.00;99.90;;;;;;4975411;28;20050;-74
2021/12/19 10:25:12;;;;;;;75.07;5.82;;;6.10;99.90;;;;;;4984412;28;20096;-74
2021/12/19 10:27:43;;;;;;;67.47;6.03;;;6.10;99.90;;;;;;4986730;28;20057;-73
2021/12/19 10:30:15;;;;;;;53.55;5.43;;;6.10;99.90;;;;;;4988069;28;20388;-73
2021/12/19 10:32:59;;;;;;;62.88;5.75;;;6.20;99.90;;;;;;4986496;28;20065;-73
2021/12/19 10:35:39;;;;;;;43.20;5.35;;;6.20;99.90;;;;;;5002357;28;20067;-73
2021/12/19 10:38:15;;;;;;;43.13;6.40;;;6.10;99.90;;;;;;5019331;28;20054;-73
2021/12/19 10:40:45;;;;;;;44.00;6.18;;;6.10;99.90;;;;;;5003398;28;20411;-74
2021/12/19 10:43:16;;;;;;;56.28;6.15;;;6.20;99.90;;;;;;4986715;28;20050;-73
2021/12/19 10:45:50;;;;;;;85.80;7.20;;;6.20;99.90;;;;;;5001843;28;20042;-74
2021/12/19 10:48:24;;;;;;;82.60;6.80;;;6.20;99.90;;;;;;4986837;28;20054;-73
2021/12/19 10:50:54;;;;;;;69.30;7.03;;;6.20;99.90;;;;;;4985252;28;20057;-73
2021/12/19 10:53:29;;;;;;;71.45;7.40;;;6.20;99.90;;;;;;4984555;28;20058;-73
2021/12/19 10:55:58;;;;;;;77.93;7.93;;;6.20;99.90;;;;;;5016226;28;20058;-74
2021/12/19 10:58:34;;;;;;;61.95;8.43;;;6.20;99.90;;;;;;4984374;28;20046;-73
2021/12/19 11:01:05;;;;;;;52.55;7.50;;;6.20;99.90;;;;;;4986941;28;20503;-73
2021/12/19 11:03:54;;;;;;;60.63;7.60;;;6.30;99.90;;;;;;4986859;28;20670;-73
2021/12/19 11:06:41;;;;;;;99.40;7.38;;;6.20;99.90;;;;;;4988256;28;20566;-73
2021/12/19 11:09:20;;;;;;;59.88;7.22;;;6.20;99.90;;;;;;4987692;28;20394;-74
2021/12/19 11:11:48;;;;;;;72.07;7.25;;;6.20;99.90;;;;;;4986670;28;20772;-73
2021/12/19 11:14:20;;;;;;;102.00;8.35;;;6.20;99.90;;;;;;4986613;28;20498;-73
2021/12/19 11:16:51;;;;;;;59.13;8.00;;;6.30;99.90;;;;;;4988357;28;20051;-72
2021/12/19 11:19:19;;;;;;;52.97;8.10;;;6.30;99.90;;;;;;4970435;28;20059;-73
2021/12/19 11:22:08;;;;;;;56.95;8.20;;;6.30;99.90;;;;;;4987448;28;20061;-72
2021/12/19 11:24:36;;;;;;;95.00;8.75;;;6.30;99.90;;;;;;4987481;28;20069;-73
2021/12/19 11:27:06;;;;;;;111.97;9.55;;;6.30;99.90;;;;;;4986703;28;20057;-73
2021/12/19 11:29:34;;;;;;;106.35;9.70;;;6.40;99.90;;;;;;5002064;28;20480;-72
2021/12/19 11:32:04;;;;;;;;;;;6.40;99.90;;;;;;4986374;28;20568;-73
2021/12/19 11:35:05;;;;;;;76.90;9.23;;;6.30;99.90;;;;;;4987574;28;19933;-73
2021/12/19 11:37:39;;;;;;;82.50;9.05;;;6.30;99.90;;;;;;4970152;28;20411;-73
2021/12/19 11:40:09;;;;;;;131.88;8.75;;;6.40;99.90;;;;;;4967713;28;20065;-73
2021/12/19 11:42:41;;;;;;;66.55;8.57;;;6.30;99.90;;;;;;4998511;28;20057;-72
2021/12/19 11:45:40;;;;;;;69.05;8.48;;;6.30;99.90;;;;;;4972965;28;20508;-73
2021/12/19 11:48:15;;;;;;;94.32;9.05;;;6.30;99.90;;;;;;4966794;28;20054;-72
2021/12/19 11:50:50;;;;;;;89.88;8.95;;;6.30;99.90;;;;;;4998641;28;20054;-72
2021/12/19 11:53:18;;;;;;;195.45;9.02;;;6.30;99.90;;;;;;5001186;28;20042;-72
2021/12/19 11:55:52;;;;;;;176.73;9.18;;;6.20;99.90;;;;;;5001734;28;20060;-72
2021/12/19 11:58:27;;;;;;;183.90;8.80;;;6.20;99.90;;;;;;5017763;28;20521;-72
2021/12/19 12:01:04;;;;;;;225.35;9.85;;;6.10;99.90;;;;;;5006423;28;20495;-72
2021/12/19 12:03:47;;;;;;;199.63;9.82;;;6.10;99.90;;;;;;4973675;28;20038;-73
2021/12/19 12:06:20;;;;;;;147.27;9.90;;;6.00;99.90;;;;;;4985975;28;20042;-72
2021/12/19 12:09:06;;;;;;;107.07;11.00;;;6.00;99.90;;;;;;5000838;28;20499;-73
2021/12/19 12:11:37;;;;;;;179.50;10.90;;;6.00;99.90;;;;;;4965147;28;20050;-72
2021/12/19 12:14:29;;;;;;;108.45;12.73;;;6.00;99.90;;;;;;4981953;28;20059;-72
2021/12/19 12:17:09;;;;;;;263.95;12.10;;;6.00;99.90;;;;;;4967169;28;20054;-73
2021/12/19 12:19:51;;;;;;;304.95;16.55;;;6.00;99.90;;;;;;4982549;28;20054;-72
2021/12/19 12:22:25;;;;;;;233.13;16.52;;;6.00;99.90;;;;;;4984430;28;20786;-72
2021/12/19 12:25:43;;;;;;;395.17;18.83;;;5.90;99.90;;;;;;5018099;28;20050;-73
2021/12/19 12:28:17;;;;;;;257.33;17.98;;;5.90;99.90;;;;;;4985876;28;20072;-72
2021/12/19 12:30:52;;;;;;;144.80;19.25;;;5.90;99.90;;;;;;4985373;28;20583;-72
2021/12/19 12:33:26;;;;;;;170.55;20.45;;;5.90;99.90;;;;;;4985204;28;20487;-73
2021/12/19 12:35:55;;;;;;;281.52;20.63;;;5.90;99.90;;;;;;4986754;28;20411;-72
2021/12/19 12:38:23;;;;;;;205.75;20.35;;;5.90;99.90;;;;;;4980790;28;20043;-72
2021/12/19 12:43:30;;;;;;;340.52;18.30;;;5.90;99.90;;;;;;5013473;28;20365;-72
2021/12/19 12:46:06;;;;;;;257.45;20.20;;;5.80;99.90;;;;;;5000933;28;20569;-72
2021/12/19 12:49:00;;;;;;;213.55;20.50;;;5.90;99.90;;;;;;5009068;28;20047;-72
2021/12/19 12:51:31;;;;;;;286.95;21.65;;;5.80;99.90;;;;;;5011169;28;20050;-72
2021/12/19 12:54:18;;;;;;;244.43;22.02;;;5.80;99.90;;;;;;4998162;28;20531;-72
2021/12/19 12:56:50;;;;;;;108.60;20.27;;;5.80;99.90;;;;;;4998482;28;20487;-72
2021/12/19 12:59:23;;;;;;;94.22;17.88;;;5.80;99.90;;;;;;4984194;28;20419;-72
2021/12/19 13:02:07;;;;;;;209.27;20.20;;;5.80;99.90;;;;;;4981766;28;20080;-72
2021/12/19 13:04:36;;;;;;;156.07;20.77;;;5.80;99.90;;;;;;4983772;28;20038;-72
2021/12/19 13:07:09;;;;;;;172.77;18.48;;;5.80;99.90;;;;;;4982946;28;20073;-72
2021/12/19 13:09:49;;;;;;;122.25;14.25;;;5.80;99.90;;;;;;5013898;28;20782;-72
2021/12/19 13:12:22;;;;;;;113.38;14.75;;;5.80;99.90;;;;;;4984059;28;20722;-72
2021/12/19 13:14:51;;;;;;;134.55;16.73;;;5.80;99.90;;;;;;4983675;28;20058;-74
2021/12/19 13:17:30;;;;;;;178.23;15.73;;;5.70;99.90;;;;;;4985190;28;20054;-73
2021/12/19 13:20:11;;;;;;;121.93;17.33;;;5.70;99.90;;;;;;5020257;28;20228;-73
2021/12/19 13:22:47;;;;;;;186.45;11.23;;;5.70;99.90;;;;;;4988649;28;20046;-73
2021/12/19 13:25:29;;;;;;;172.35;8.25;;;5.60;99.90;;;;;;4986988;28;20497;-73
2021/12/19 13:27:59;;;;;;;132.73;8.50;;;5.60;99.90;;;;;;4987301;28;20050;-73
2021/12/19 13:30:32;;;;;;;111.65;8.75;;;5.60;99.90;;;;;;4988119;28;20058;-73
2021/12/19 13:33:08;;;;;;;183.73;9.05;;;5.50;99.90;;;;;;4988665;28;20046;-73
2021/12/19 13:35:46;;;;;;;182.85;10.82;;;5.50;99.90;;;;;;5002937;28;20042;-73
2021/12/19 13:38:16;;;;;;;166.10;13.02;;;5.40;99.90;;;;;;4988018;28;20050;-73
2021/12/19 13:40:46;;;;;;;152.88;13.05;;;5.40;99.90;;;;;;4987392;28;20043;-73
2021/12/19 13:43:26;;;;;;;170.95;13.63;;;5.40;99.90;;;;;;5001134;28;20051;-73
2021/12/19 13:45:56;;;;;;;119.82;11.70;;;5.40;99.90;;;;;;4983297;28;20058;-73
2021/12/19 13:48:28;;;;;;;181.30;15.00;;;5.40;99.90;;;;;;4985673;28;20050;-73
2021/12/19 13:51:00;;;;;;;195.40;14.88;;;5.40;99.90;;;;;;4986687;28;20058;-73
2021/12/19 13:53:37;;;;;;;180.55;15.23;;;5.50;99.90;;;;;;4988427;28;20050;-73
2021/12/19 13:56:11;;;;;;;237.80;15.10;;;5.50;99.90;;;;;;4983815;28;20308;-73
2021/12/19 13:58:48;;;;;;;161.02;15.90;;;5.40;99.90;;;;;;4987767;28;20549;-73
2021/12/19 14:01:22;;;;;;;217.65;17.60;;;5.40;99.90;;;;;;4984183;28;20053;-73
2021/12/19 14:03:54;;;;;;;139.65;15.77;;;5.40;99.90;;;;;;4968491;28;20059;-73
2021/12/19 14:06:29;;;;;;;214.63;16.48;;;5.40;99.90;;;;;;4988019;28;20046;-73